Data for 10/13/2008

Time Sea-Level Adjusted Pressure Absolute Pressure Temperature Relative Humidity Dew Point   
(mb) (inHg) (mb) (inHg) (C) (F) (%) (C) (F)
00:05 1024 30.24 853 25.19 -3.2 26.3 91 -4.5 23.9
00:10 1024 30.24 853 25.19 -3.3 26.1 91 -4.5 23.9
00:15 1024 30.24 853 25.19 -3.6 25.6 92 -4.7 23.6
00:20 1024 30.24 853 25.19 -3.6 25.5 91 -4.8 23.3
00:25 1024 30.24 853 25.19 -3.5 25.7 90 -4.9 23.1
00:30 1024 30.24 853 25.19 -3.3 26 91 -4.6 23.7
00:35 1024 30.24 853 25.19 -3.3 26.1 89 -4.8 23.4
00:40 1024 30.24 853 25.19 -3.3 26.1 89 -4.8 23.4
00:45 1024 30.24 853 25.19 -3.4 25.8 91 -4.8 23.4
00:50 1024 30.24 853 25.19 -3.5 25.6 89 -5.1 22.8
00:55 1024 30.24 853 25.19 -3.4 25.8 89 -5 23.1
01:00 1024 30.24 853 25.19 -3.5 25.7 90 -5 23
01:05 1024 30.24 853 25.19 -3.7 25.4 89 -5.2 22.7
01:10 1024 30.24 853 25.19 -3.6 25.4 89 -5.2 22.7
01:15 1024 30.24 853 25.19 -3.6 25.4 89 -5.2 22.6
01:20 1024 30.24 853 25.19 -3.6 25.4 90 -5.1 22.8
01:25 1024 30.24 853 25.19 -3.6 25.5 89 -5.2 22.7
01:30 1024 30.24 853 25.19 -3.6 25.4 89 -5.2 22.7
01:35 1024 30.24 853 25.19 -3.8 25.1 90 -5.2 22.7
01:40 1024 30.24 853 25.19 -4.2 24.4 91 -5.5 22.1
01:45 1024 30.24 853 25.19 -4.3 24.2 90 -5.7 21.8
01:50 1024 30.24 853 25.19 -4.6 23.8 91 -5.9 21.5
01:55 1024 30.24 853 25.19 -4.9 23.2 91 -6.1 21
02:00 1024 30.24 853 25.19 -4.8 23.4 89 -6.3 20.6
02:05 1024 30.24 853 25.19 -4.6 23.7 89 -6.2 20.8
02:10 1024 30.24 853 25.19 -4.3 24.2 85 -6.4 20.4
02:15 1024 30.24 854 25.22 -4.1 24.7 85 -6.3 20.7
02:20 1025 30.27 854 25.22 -4.1 24.5 85 -6.3 20.6
02:25 1025 30.27 854 25.22 -4.4 24.2 86 -6.3 20.6
02:30 1025 30.27 854 25.22 -4.7 23.6 87 -6.5 20.3
02:35 1025 30.27 854 25.22 -5.3 22.4 91 -6.6 20.1
02:40 1025 30.27 854 25.22 -5.6 21.9 90 -7 19.4
02:45 1025 30.27 854 25.22 -5.7 21.7 90 -7.2 19.1
02:50 1025 30.27 854 25.22 -5.8 21.6 89 -7.3 18.9
02:55 1025 30.27 854 25.22 -6.1 21 90 -7.6 18.4
03:00 1025 30.27 854 25.22 -6.4 20.4 92 -7.6 18.3
03:05 1025 30.27 854 25.22 -6.4 20.5 91 -7.6 18.3
03:10 1025 30.27 854 25.22 -6.5 20.3 94 -7.4 18.8
03:15 1025 30.27 854 25.22 -6.2 20.8 94 -7.1 19.2
03:20 1025 30.27 854 25.22 -5.6 21.8 87 -7.5 18.5
03:25 1025 30.27 854 25.22 -5.7 21.8 87 -7.4 18.6
03:30 1025 30.27 854 25.22 -5.9 21.4 91 -7.1 19.1
03:35 1025 30.27 854 25.22 -6.2 20.8 90 -7.6 18.4
03:40 1025 30.27 854 25.22 -6.3 20.6 93 -7.3 18.8
03:45 1025 30.27 854 25.22 -5.8 21.5 91 -7 19.3
03:50 1025 30.27 854 25.22 -5.5 22 90 -6.9 19.5
03:55 1025 30.27 854 25.22 -5.2 22.6 88 -6.9 19.6
04:00 1025 30.27 854 25.22 -4.9 23.1 89 -6.5 20.3
04:05 1025 30.27 855 25.25 -4.7 23.6 88 -6.4 20.5
04:10 1025 30.27 855 25.25 -4.5 24 85 -6.6 20.2
04:15 1025 30.27 855 25.25 -4.6 23.7 82 -7.2 19
04:20 1025 30.27 855 25.25 -4.7 23.6 79 -7.7 18.1
04:25 1026 30.3 855 25.25 -4.8 23.3 81 -7.6 18.4
04:30 1026 30.3 855 25.25 -5.4 22.2 83 -7.9 17.7
04:35 1026 30.3 855 25.25 -6.1 21 86 -8.2 17.3
04:40 1026 30.3 855 25.25 -6.2 20.9 86 -8.2 17.2
04:45 1026 30.3 855 25.25 -5.9 21.4 85 -8.1 17.4
04:50 1026 30.3 855 25.25 -5.2 22.7 79 -8.2 17.2
04:55 1026 30.3 855 25.25 -4.3 24.2 75 -8.1 17.4
05:00 1026 30.3 855 25.25 -3.8 25.1 75 -7.6 18.3
05:05 1026 30.3 855 25.25 -4.4 24.1 77 -7.9 17.8
05:10 1026 30.3 855 25.25 -4.4 24.1 76 -8.1 17.5
05:15 1026 30.3 855 25.25 -4.5 23.9 78 -7.7 18.1
05:20 1026 30.3 855 25.25 -5.1 22.8 81 -7.9 17.8
05:25 1026 30.3 855 25.25 -5.3 22.4 81 -8 17.5
05:30 1026 30.3 855 25.25 -5.1 22.7 81 -7.8 17.9
05:35 1026 30.3 855 25.25 -5.2 22.7 81 -7.9 17.8
05:40 1026 30.3 855 25.25 -5.2 22.7 79 -8.2 17.3
05:45 1026 30.3 855 25.25 -5.1 22.9 80 -7.9 17.7
05:50 1026 30.3 855 25.25 -5.4 22.3 81 -8.1 17.3
05:55 1025 30.27 855 25.25 -5.7 21.8 83 -8.2 17.3
06:00 1026 30.3 855 25.25 -5.9 21.3 84 -8.2 17.2
06:05 1026 30.3 855 25.25 -6.3 20.6 86 -8.3 17.1
06:10 1026 30.3 855 25.25 -6.1 21.1 86 -8.1 17.4
06:15 1026 30.3 855 25.25 -5.8 21.5 86 -7.8 17.9
06:20 1026 30.3 855 25.25 -6.3 20.7 87 -8.1 17.4
06:25 1026 30.3 855 25.25 -6.6 20.2 88 -8.3 17.1
06:30 1026 30.3 855 25.25 -6.7 20 88 -8.3 17.1
06:35 1026 30.3 855 25.25 -6.6 20.2 89 -8.1 17.4
06:40 1026 30.3 855 25.25 -6.2 20.8 88 -8 17.7
06:45 1026 30.3 855 25.25 -6 21.2 87 -7.8 17.9
06:50 1026 30.3 856 25.28 -5.8 21.6 85 -7.9 17.8
06:55 1026 30.3 856 25.28 -5.8 21.6 86 -7.8 17.9
07:00 1026 30.3 856 25.28 -5.6 21.9 86 -7.7 18.2
07:05 1026 30.3 856 25.28 -5.7 21.7 86 -7.8 18
07:10 1026 30.3 856 25.28 -5.5 22.1 84 -7.8 17.9
07:15 1026 30.3 856 25.28 -5.4 22.2 85 -7.6 18.4
07:20 1026 30.3 856 25.28 -5.4 22.3 84 -7.7 18.1
07:25 1027 30.33 856 25.28 -5.2 22.6 81 -7.9 17.7
07:30 1027 30.33 856 25.28 -4.9 23.2 81 -7.6 18.3
07:35 1027 30.33 856 25.28 -4.5 24 79 -7.5 18.5
07:40 1027 30.33 856 25.28 -4.3 24.3 79 -7.4 18.8
07:45 1027 30.33 856 25.28 -4.1 24.7 81 -6.9 19.5
07:50 1027 30.33 856 25.28 -4.8 23.4 85 -6.9 19.5
07:55 1027 30.33 856 25.28 -5.3 22.5 86 -7.3 18.9
08:00 1027 30.33 856 25.28 -5.1 22.9 85 -7.2 19
08:05 1027 30.33 856 25.28 -4.6 23.7 82 -7.1 19.1
08:10 1027 30.33 856 25.28 -4.3 24.3 83 -6.8 19.7
08:15 1027 30.33 856 25.28 -4 24.9 79 -7.1 19.3
08:20 1027 30.33 856 25.28 -3.5 25.6 75 -7.4 18.8
08:25 1027 30.33 856 25.28 -3.3 26.1 72 -7.6 18.4
08:30 1027 30.33 856 25.28 -2.7 27.1 71 -7.3 18.8
08:35 1027 30.33 856 25.28 -2.6 27.4 72 -6.9 19.5
08:40 1027 30.33 857 25.31 -2.4 27.7 71 -6.8 19.7
08:45 1028 30.36 857 25.31 -2.1 28.2 71 -6.7 20
08:50 1028 30.36 857 25.31 -1.9 28.6 73 -6.1 21
08:55 1028 30.36 857 25.31 -1.9 28.7 70 -6.6 20.1
09:00 1028 30.36 857 25.31 -1.8 28.8 72 -6.1 21
09:05 1028 30.36 857 25.31 -1.8 28.7 73 -6.1 21.1
09:10 1028 30.36 857 25.31 -1.9 28.6 79 -5.1 22.8
09:15 1028 30.36 857 25.31 -2.1 28.2 79 -5.2 22.6
09:20 1028 30.36 857 25.31 -1.8 28.7 78 -5.1 22.8
09:25 1028 30.36 857 25.31 -1.6 29 78 -5 23
09:30 1028 30.36 857 25.31 -1.7 28.9 77 -5.3 22.5
09:35 1028 30.36 857 25.31 -1.6 29.2 77 -5.1 22.8
09:40 1028 30.36 857 25.31 -1.5 29.2 77 -5 23
09:45 1028 30.36 857 25.31 -1.4 29.4 72 -5.8 21.6
09:50 1028 30.36 857 25.31 -1.7 28.9 74 -5.8 21.6
09:55 1028 30.36 857 25.31 -1.3 29.6 74 -5.4 22.3
10:00 1028 30.36 858 25.34 -0.9 30.4 72 -5.3 22.5
10:05 1028 30.36 858 25.34 -0.6 30.9 72 -4.9 23.1
10:10 1028 30.36 858 25.34 -0.4 31.3 70 -5.2 22.6
10:15 1028 30.36 857 25.31 -0.4 31.3 70 -5.3 22.5
10:20 1028 30.36 858 25.34 -0.5 31.1 73 -4.7 23.6
10:25 1028 30.36 857 25.31 -0.3 31.4 71 -4.9 23.2
10:30 1028 30.36 857 25.31 -0.1 31.8 72 -4.6 23.7
10:35 1028 30.36 858 25.34 -0.1 31.9 73 -4.3 24.2
10:40 1028 30.36 858 25.34 0.4 32.7 69 -4.7 23.5
10:45 1028 30.36 857 25.31 0.9 33.5 70 -4 24.8
10:50 1028 30.36 857 25.31 1.3 34.3 66 -4.3 24.3
10:55 1028 30.36 858 25.34 0.9 33.6 70 -4 24.8
11:00 1028 30.36 858 25.34 0.9 33.6 68 -4.4 24.2
11:05 1028 30.36 858 25.34 1.2 34.2 68 -4.1 24.7
11:10 1028 30.36 857 25.31 1.7 35.1 67 -3.7 25.3
11:15 1028 30.36 857 25.31 2.3 36.1 61 -4.4 24.1
11:20 1028 30.36 857 25.31 2 35.6 66 -3.7 25.3
11:25 1028 30.36 857 25.31 2 35.6 66 -3.7 25.4
11:30 1028 30.36 857 25.31 1.7 35.1 67 -3.7 25.3
11:35 1028 30.36 857 25.31 1.5 34.7 67 -4 24.8
11:40 1028 30.36 858 25.34 1.3 34.3 67 -4.2 24.5
11:45 1028 30.36 858 25.34 1.5 34.7 65 -4.4 24.1
11:50 1029 30.39 858 25.34 1.6 34.9 63 -4.7 23.5
11:55 1029 30.39 858 25.34 2 35.6 64 -4.1 24.6
12:00 1029 30.39 858 25.34 2.6 36.7 61 -4.2 24.4
12:05 1028 30.36 858 25.34 3.2 37.7 58 -4.3 24.2
12:10 1028 30.36 857 25.31 3.9 39 54 -4.6 23.7
12:15 1028 30.36 857 25.31 4.8 40.6 51 -4.6 23.7
12:20 1028 30.36 857 25.31 4.6 40.3 53 -4.2 24.4
12:25 1028 30.36 857 25.31 4.7 40.5 53 -4.1 24.6
12:30 1028 30.36 857 25.31 5.1 41.2 54 -3.4 25.9
12:35 1028 30.36 857 25.31 5 41 52 -4.1 24.6
12:40 1028 30.36 857 25.31 5.5 41.9 51 -3.8 25.1
12:45 1028 30.36 857 25.31 5.4 41.8 51 -3.9 24.9
12:50 1028 30.36 857 25.31 5.4 41.7 51 -3.9 24.9
12:55 1028 30.36 857 25.31 5 40.9 53 -3.7 25.3
13:00 1028 30.36 857 25.31 4.5 40.1 52 -4.5 23.8
13:05 1028 30.36 857 25.31 5.1 41.1 50 -4.6 23.8
13:10 1028 30.36 857 25.31 4.7 40.5 53 -4.1 24.7
13:15 1028 30.36 857 25.31 5.2 41.4 51 -4.1 24.6
13:20 1028 30.36 857 25.31 5.3 41.5 53 -3.4 25.8
13:25 1028 30.36 857 25.31 6.6 43.9 47 -3.9 25.1
13:30 1028 30.36 857 25.31 6.9 44.4 47 -3.7 25.3
13:35 1027 30.33 857 25.31 5.8 42.4 50 -3.7 25.3
13:40 1027 30.33 857 25.31 6.3 43.4 48 -3.9 24.9
13:45 1027 30.33 857 25.31 7.1 44.7 48 -3.2 26.2
13:50 1027 30.33 857 25.31 7.4 45.3 45 -3.7 25.3
13:55 1027 30.33 857 25.31 7.5 45.5 45 -3.8 25.2
14:00 1027 30.33 856 25.28 7.5 45.5 46 -3.2 26.2
14:05 1027 30.33 856 25.28 7.7 45.8 47 -3 26.6
14:10 1027 30.33 856 25.28 8.1 46.5 47 -2.4 27.7
14:15 1027 30.33 857 25.31 8.4 47.1 46 -2.5 27.4
14:20 1027 30.33 857 25.31 8 46.4 46 -2.9 26.8
14:25 1027 30.33 857 25.31 7.6 45.6 48 -2.7 27.2
14:30 1027 30.33 857 25.31 6.9 44.4 50 -2.8 26.9
14:35 1027 30.33 857 25.31 6.5 43.7 52 -2.6 27.3
14:40 1027 30.33 857 25.31 6.6 43.9 52 -2.5 27.6
14:45 1027 30.33 857 25.31 6.7 44.1 51 -2.8 27
14:50 1027 30.33 857 25.31 6.9 44.3 51 -2.6 27.3
14:55 1027 30.33 857 25.31 7 44.6 51 -2.4 27.7
15:00 1028 30.36 857 25.31 7.2 45 51 -2.3 27.8
15:05 1028 30.36 857 25.31 7.2 44.9 51 -2.3 27.9
15:10 1028 30.36 857 25.31 7.2 44.9 51 -2.2 28.1
15:15 1028 30.36 857 25.31 7.2 45 51 -2.2 28
15:20 1027 30.33 857 25.31 7.7 45.8 48 -2.5 27.4
15:25 1028 30.36 857 25.31 8 46.4 49 -2.1 28.2
15:30 1028 30.36 857 25.31 7.6 45.7 49 -2.3 27.9
15:35 1028 30.36 857 25.31 7.3 45.2 49 -2.7 27.2
15:40 1028 30.36 857 25.31 7.5 45.6 47 -3.1 26.4
15:45 1028 30.36 857 25.31 7.5 45.4 48 -2.7 27.2
15:50 1028 30.36 857 25.31 7 44.6 49 -3 26.6
15:55 1028 30.36 857 25.31 6.9 44.4 50 -2.9 26.8
16:00 1028 30.36 857 25.31 7.3 45.1 49 -2.7 27.2
16:05 1028 30.36 857 25.31 6.9 44.5 52 -2.3 27.8
16:10 1028 30.36 857 25.31 7 44.6 52 -2.2 28
16:15 1028 30.36 857 25.31 6.7 44 52 -2.4 27.7
16:20 1028 30.36 857 25.31 6.1 43.1 50 -3.6 25.6
16:25 1028 30.36 857 25.31 6.7 44.1 50 -2.8 26.9
16:30 1028 30.36 857 25.31 7.1 44.8 47 -3.3 26
16:35 1027 30.33 857 25.31 7.4 45.4 48 -2.9 26.8
16:40 1027 30.33 857 25.31 7.7 45.8 45 -3.3 26
16:45 1027 30.33 857 25.31 7.7 45.9 45 -3.5 25.7
16:50 1028 30.36 857 25.31 7.9 46.2 45 -3.3 26.1
16:55 1027 30.33 857 25.31 7.8 46 46 -3.1 26.5
17:00 1027 30.33 857 25.31 7.5 45.4 47 -3.1 26.5
17:05 1027 30.33 857 25.31 7 44.7 48 -3.3 26.1
17:10 1027 30.33 857 25.31 7.1 44.8 48 -3.2 26.2
17:15 1027 30.33 857 25.31 7.5 45.4 47 -3.2 26.3
17:20 1027 30.33 856 25.28 7.1 44.8 49 -2.9 26.7
17:25 1027 30.33 856 25.28 7 44.7 49 -2.8 26.9
17:30 1027 30.33 856 25.28 7.2 45 49 -2.9 26.8
17:35 1027 30.33 856 25.28 7.2 45 49 -2.7 27.1
17:40 1027 30.33 856 25.28 7.7 45.9 47 -3 26.7
17:45 1027 30.33 856 25.28 8.3 47 46 -2.6 27.2
17:50 1027 30.33 856 25.28 8 46.4 47 -2.6 27.3
17:55 1027 30.33 856 25.28 7.8 46 48 -2.4 27.6
18:00 1027 30.33 856 25.28 7.6 45.6 47 -2.9 26.8
18:05 1027 30.33 857 25.31 7.6 45.6 49 -2.3 27.8
18:10 1027 30.33 857 25.31 7.6 45.6 49 -2.5 27.5
18:15 1027 30.33 856 25.28 7.7 45.8 49 -2.3 27.9
18:20 1027 30.33 856 25.28 7.4 45.4 51 -1.9 28.6
18:25 1027 30.33 856 25.28 7.4 45.4 51 -2.1 28.2
18:30 1027 30.33 856 25.28 7.8 46.1 50 -2 28.4
18:35 1027 30.33 856 25.28 7.6 45.6 52 -1.6 29.2
18:40 1027 30.33 856 25.28 6.7 44.1 55 -1.8 28.8
18:45 1027 30.33 857 25.31 6.3 43.4 57 -1.6 29.1
18:50 1027 30.33 857 25.31 6 42.8 55 -2.4 27.7
18:55 1027 30.33 857 25.31 5.7 42.2 58 -2 28.4
19:00 1027 30.33 857 25.31 5.5 41.8 60 -1.6 29.2
19:05 1027 30.33 857 25.31 5.4 41.6 63 -1.2 29.9
19:10 1027 30.33 857 25.31 5.3 41.6 63 -1.2 29.9
19:15 1028 30.36 857 25.31 5.3 41.6 61 -1.5 29.3
19:20 1028 30.36 857 25.31 5.5 41.8 61 -1.5 29.3
19:25 1027 30.33 857 25.31 5.6 42.1 62 -1.1 30
19:30 1027 30.33 857 25.31 5.3 41.6 64 -0.9 30.4
19:35 1027 30.33 857 25.31 5.1 41.2 69 -0 31.9
19:40 1027 30.33 857 25.31 5.1 41.2 68 -0.4 31.4
19:45 1028 30.36 857 25.31 5.5 42 67 -0 31.9
19:50 1028 30.36 857 25.31 5.3 41.5 71 0.4 32.8
19:55 1028 30.36 857 25.31 5.2 41.4 71 0.4 32.8
20:00 1028 30.36 857 25.31 5.2 41.3 73 0.8 33.5
20:05 1027 30.33 857 25.31 5 41.1 74 0.8 33.5
20:10 1027 30.33 857 25.31 4.8 40.6 75 0.7 33.2
20:15 1027 30.33 857 25.31 4.6 40.2 75 0.6 33
20:20 1027 30.33 857 25.31 4.7 40.5 75 0.7 33.3
20:25 1027 30.33 857 25.31 4.9 40.9 77 1.3 34.3
20:30 1027 30.33 857 25.31 4.8 40.6 77 1.1 34
20:35 1027 30.33 857 25.31 4.9 40.7 76 1 33.8
20:40 1027 30.33 857 25.31 4.7 40.4 78 1.2 34.2
20:45 1027 30.33 857 25.31 4.3 39.8 80 1.1 34.1
20:50 1027 30.33 857 25.31 4.2 39.6 79 0.8 33.5
20:55 1027 30.33 856 25.28 4.6 40.3 76 0.8 33.5
21:00 1027 30.33 857 25.31 4.8 40.6 76 0.9 33.6
21:05 1027 30.33 856 25.28 4.9 40.9 75 0.9 33.7
21:10 1027 30.33 857 25.31 4.9 40.7 76 0.9 33.7
21:15 1027 30.33 857 25.31 4.7 40.5 76 0.9 33.7
21:20 1027 30.33 856 25.28 4.7 40.5 76 0.8 33.5
21:25 1027 30.33 856 25.28 4.8 40.7 75 0.8 33.4
21:30 1027 30.33 856 25.28 4.9 40.8 75 0.9 33.6
21:35 1027 30.33 857 25.31 4.9 40.8 76 1 33.7
21:40 1027 30.33 857 25.31 4.5 40.1 78 1.1 33.9
21:45 1028 30.36 857 25.31 4.2 39.6 78 0.7 33.3
21:50 1028 30.36 857 25.31 4.4 39.9 78 0.8 33.5
21:55 1028 30.36 857 25.31 4.4 40 78 0.9 33.7
22:00 1027 30.33 857 25.31 4.4 39.9 77 0.8 33.4
22:05 1027 30.33 857 25.31 4.5 40 78 0.9 33.6
22:10 1027 30.33 857 25.31 4.5 40.2 77 0.9 33.6
22:15 1027 30.33 857 25.31 4.7 40.4 77 1 33.7
22:20 1027 30.33 857 25.31 4.7 40.5 76 0.9 33.7
22:25 1027 30.33 856 25.28 4.7 40.4 77 1 33.8
22:30 1027 30.33 856 25.28 4.4 39.9 79 1 33.8
22:35 1027 30.33 856 25.28 4.1 39.4 79 0.8 33.5
22:40 1027 30.33 856 25.28 4 39.2 80 0.9 33.7
22:45 1027 30.33 856 25.28 3.8 38.9 79 0.6 33
22:50 1027 30.33 856 25.28 3.9 39 78 0.4 32.7
22:55 1027 30.33 856 25.28 3.9 39 79 0.6 33
23:00 1027 30.33 856 25.28 3.8 38.8 80 0.6 33
23:05 1027 30.33 856 25.28 3.2 37.8 82 0.4 32.8
23:10 1027 30.33 856 25.28 3.1 37.7 82 0.4 32.7
23:15 1027 30.33 856 25.28 3.7 38.7 79 0.5 32.8
23:20 1027 30.33 856 25.28 4 39.2 79 0.6 33.1
23:25 1027 30.33 856 25.28 3.6 38.4 79 0.3 32.6
23:30 1026 30.3 856 25.28 3.3 38 80 0.2 32.3
23:35 1026 30.3 856 25.28 2.8 37.1 82 0 32.1
23:40 1026 30.3 855 25.25 3 37.5 81 0 32
23:45 1026 30.3 855 25.25 2.9 37.1 81 -0 31.9
23:50 1026 30.3 855 25.25 2.9 37.2 82 0.1 32.2
23:55 1026 30.3 855 25.25 2.6 36.7 84 0.2 32.3
24:00 1026 30.3 855 25.25 2.5 36.5 85 0.2 32.4